sensor_id;sensor_type;location;lat;lon;timestamp;P1;durP1;ratioP1;P2;durP2;ratioP2
48207;SDS011;33997;53.278;9.708;2023-01-16T00:00:37;4.72;;;2.03;;
48207;SDS011;33997;53.278;9.708;2023-01-16T00:03:06;5.18;;;1.92;;
48207;SDS011;33997;53.278;9.708;2023-01-16T00:05:31;3.70;;;1.48;;
48207;SDS011;33997;53.278;9.708;2023-01-16T00:07:57;4.47;;;1.80;;
48207;SDS011;33997;53.278;9.708;2023-01-16T00:10:22;4.22;;;2.08;;
48207;SDS011;33997;53.278;9.708;2023-01-16T00:12:48;3.95;;;1.80;;
48207;SDS011;33997;53.278;9.708;2023-01-16T00:15:13;4.45;;;2.00;;
48207;SDS011;33997;53.278;9.708;2023-01-16T00:17:39;7.28;;;2.13;;
48207;SDS011;33997;53.278;9.708;2023-01-16T00:20:04;4.53;;;2.00;;
48207;SDS011;33997;53.278;9.708;2023-01-16T00:22:30;5.95;;;1.67;;
48207;SDS011;33997;53.278;9.708;2023-01-16T00:24:56;6.60;;;1.98;;
48207;SDS011;33997;53.278;9.708;2023-01-16T00:27:21;9.63;;;1.90;;
48207;SDS011;33997;53.278;9.708;2023-01-16T00:29:46;9.27;;;2.70;;
48207;SDS011;33997;53.278;9.708;2023-01-16T00:32:12;6.82;;;1.83;;
48207;SDS011;33997;53.278;9.708;2023-01-16T00:34:40;4.13;;;1.60;;
48207;SDS011;33997;53.278;9.708;2023-01-16T00:37:05;5.45;;;1.60;;
48207;SDS011;33997;53.278;9.708;2023-01-16T00:39:31;4.90;;;1.38;;
48207;SDS011;33997;53.278;9.708;2023-01-16T00:41:57;4.93;;;1.33;;
48207;SDS011;33997;53.278;9.708;2023-01-16T00:44:23;7.07;;;1.70;;
48207;SDS011;33997;53.278;9.708;2023-01-16T00:46:49;5.35;;;1.60;;
48207;SDS011;33997;53.278;9.708;2023-01-16T00:49:14;4.50;;;1.20;;
48207;SDS011;33997;53.278;9.708;2023-01-16T00:51:40;5.60;;;1.40;;
48207;SDS011;33997;53.278;9.708;2023-01-16T00:54:06;7.70;;;1.80;;
48207;SDS011;33997;53.278;9.708;2023-01-16T00:56:31;3.42;;;1.48;;
48207;SDS011;33997;53.278;9.708;2023-01-16T00:58:57;6.80;;;1.60;;
48207;SDS011;33997;53.278;9.708;2023-01-16T01:01:22;4.72;;;1.75;;
48207;SDS011;33997;53.278;9.708;2023-01-16T01:03:48;6.15;;;1.38;;
48207;SDS011;33997;53.278;9.708;2023-01-16T01:06:13;3.55;;;1.40;;
48207;SDS011;33997;53.278;9.708;2023-01-16T01:08:39;3.25;;;1.15;;
48207;SDS011;33997;53.278;9.708;2023-01-16T01:11:08;3.53;;;1.30;;
48207;SDS011;33997;53.278;9.708;2023-01-16T01:13:35;6.38;;;1.40;;
48207;SDS011;33997;53.278;9.708;2023-01-16T01:16:01;2.92;;;1.27;;
48207;SDS011;33997;53.278;9.708;2023-01-16T01:18:26;3.47;;;1.30;;
48207;SDS011;33997;53.278;9.708;2023-01-16T01:20:52;6.10;;;1.60;;
48207;SDS011;33997;53.278;9.708;2023-01-16T01:23:17;2.63;;;1.30;;
48207;SDS011;33997;53.278;9.708;2023-01-16T01:25:43;5.78;;;1.30;;
48207;SDS011;33997;53.278;9.708;2023-01-16T01:28:08;5.68;;;1.42;;
48207;SDS011;33997;53.278;9.708;2023-01-16T01:30:34;3.17;;;1.40;;
48207;SDS011;33997;53.278;9.708;2023-01-16T01:32:59;4.80;;;1.20;;
48207;SDS011;33997;53.278;9.708;2023-01-16T01:35:25;4.70;;;1.40;;
48207;SDS011;33997;53.278;9.708;2023-01-16T01:37:50;3.03;;;1.00;;
48207;SDS011;33997;53.278;9.708;2023-01-16T01:40:16;4.45;;;1.33;;
48207;SDS011;33997;53.278;9.708;2023-01-16T01:42:41;6.30;;;1.38;;
48207;SDS011;33997;53.278;9.708;2023-01-16T01:47:48;5.85;;;1.33;;
48207;SDS011;33997;53.278;9.708;2023-01-16T01:50:25;3.38;;;1.15;;
48207;SDS011;33997;53.278;9.708;2023-01-16T01:53:14;3.75;;;1.15;;
48207;SDS011;33997;53.278;9.708;2023-01-16T01:55:46;6.60;;;1.40;;
48207;SDS011;33997;53.278;9.708;2023-01-16T01:58:13;3.30;;;1.45;;
48207;SDS011;33997;53.278;9.708;2023-01-16T02:00:46;3.03;;;1.13;;
48207;SDS011;33997;53.278;9.708;2023-01-16T02:03:15;2.85;;;0.93;;
48207;SDS011;33997;53.278;9.708;2023-01-16T02:05:50;5.10;;;1.65;;
48207;SDS011;33997;53.278;9.708;2023-01-16T02:08:20;5.18;;;1.25;;
48207;SDS011;33997;53.278;9.708;2023-01-16T02:10:51;2.33;;;1.00;;
48207;SDS011;33997;53.278;9.708;2023-01-16T02:13:20;4.93;;;1.58;;
48207;SDS011;33997;53.278;9.708;2023-01-16T02:15:45;8.82;;;1.13;;
48207;SDS011;33997;53.278;9.708;2023-01-16T02:18:30;5.15;;;1.50;;
48207;SDS011;33997;53.278;9.708;2023-01-16T02:21:42;5.05;;;1.58;;
48207;SDS011;33997;53.278;9.708;2023-01-16T02:27:02;6.85;;;1.25;;
48207;SDS011;33997;53.278;9.708;2023-01-16T02:29:50;6.53;;;1.58;;
48207;SDS011;33997;53.278;9.708;2023-01-16T02:40:48;4.47;;;1.00;;
48207;SDS011;33997;53.278;9.708;2023-01-16T02:43:20;4.03;;;1.42;;
48207;SDS011;33997;53.278;9.708;2023-01-16T02:46:06;4.13;;;1.40;;
48207;SDS011;33997;53.278;9.708;2023-01-16T02:48:44;5.05;;;1.15;;
48207;SDS011;33997;53.278;9.708;2023-01-16T02:51:51;7.13;;;1.67;;
48207;SDS011;33997;53.278;9.708;2023-01-16T02:54:15;3.58;;;1.60;;
48207;SDS011;33997;53.278;9.708;2023-01-16T02:56:48;2.80;;;1.50;;
48207;SDS011;33997;53.278;9.708;2023-01-16T02:59:23;10.50;;;1.98;;
48207;SDS011;33997;53.278;9.708;2023-01-16T03:01:51;5.63;;;1.20;;
48207;SDS011;33997;53.278;9.708;2023-01-16T03:07:03;4.25;;;1.50;;
48207;SDS011;33997;53.278;9.708;2023-01-16T03:09:44;7.50;;;1.70;;
48207;SDS011;33997;53.278;9.708;2023-01-16T03:15:28;8.20;;;1.45;;
48207;SDS011;33997;53.278;9.708;2023-01-16T03:18:18;6.32;;;1.50;;
48207;SDS011;33997;53.278;9.708;2023-01-16T03:28:54;6.95;;;1.10;;
48207;SDS011;33997;53.278;9.708;2023-01-16T03:31:49;6.35;;;1.58;;
48207;SDS011;33997;53.278;9.708;2023-01-16T03:34:39;7.80;;;1.58;;
48207;SDS011;33997;53.278;9.708;2023-01-16T03:37:17;4.88;;;1.10;;
48207;SDS011;33997;53.278;9.708;2023-01-16T03:39:51;6.35;;;1.20;;
48207;SDS011;33997;53.278;9.708;2023-01-16T03:42:22;7.82;;;1.27;;
48207;SDS011;33997;53.278;9.708;2023-01-16T03:44:59;3.78;;;1.10;;
48207;SDS011;33997;53.278;9.708;2023-01-16T03:47:31;4.68;;;1.13;;
48207;SDS011;33997;53.278;9.708;2023-01-16T03:50:02;2.28;;;0.88;;
48207;SDS011;33997;53.278;9.708;2023-01-16T03:52:32;3.80;;;1.00;;
48207;SDS011;33997;53.278;9.708;2023-01-16T03:57:45;6.35;;;1.17;;
48207;SDS011;33997;53.278;9.708;2023-01-16T04:00:15;2.05;;;0.70;;
48207;SDS011;33997;53.278;9.708;2023-01-16T04:02:46;3.47;;;0.90;;
48207;SDS011;33997;53.278;9.708;2023-01-16T04:05:18;3.53;;;1.00;;
48207;SDS011;33997;53.278;9.708;2023-01-16T04:07:52;2.25;;;0.80;;
48207;SDS011;33997;53.278;9.708;2023-01-16T04:10:31;3.40;;;0.95;;
48207;SDS011;33997;53.278;9.708;2023-01-16T04:13:01;5.00;;;1.00;;
48207;SDS011;33997;53.278;9.708;2023-01-16T04:15:37;3.08;;;1.02;;
48207;SDS011;33997;53.278;9.708;2023-01-16T04:18:06;1.90;;;0.90;;
48207;SDS011;33997;53.278;9.708;2023-01-16T04:20:31;6.35;;;1.00;;
48207;SDS011;33997;53.278;9.708;2023-01-16T04:22:57;5.93;;;1.17;;
48207;SDS011;33997;53.278;9.708;2023-01-16T04:25:23;1.63;;;0.73;;
48207;SDS011;33997;53.278;9.708;2023-01-16T04:27:49;3.95;;;1.13;;
48207;SDS011;33997;53.278;9.708;2023-01-16T04:30:14;3.22;;;0.73;;
48207;SDS011;33997;53.278;9.708;2023-01-16T04:32:40;2.85;;;1.02;;
48207;SDS011;33997;53.278;9.708;2023-01-16T04:35:06;5.05;;;0.90;;
48207;SDS011;33997;53.278;9.708;2023-01-16T04:37:32;4.38;;;0.80;;
48207;SDS011;33997;53.278;9.708;2023-01-16T04:39:58;3.75;;;1.13;;
48207;SDS011;33997;53.278;9.708;2023-01-16T04:42:24;4.10;;;1.00;;
48207;SDS011;33997;53.278;9.708;2023-01-16T04:44:50;4.72;;;0.80;;
48207;SDS011;33997;53.278;9.708;2023-01-16T04:47:16;4.20;;;0.90;;
48207;SDS011;33997;53.278;9.708;2023-01-16T04:49:41;2.00;;;0.68;;
48207;SDS011;33997;53.278;9.708;2023-01-16T04:52:07;4.72;;;0.80;;
48207;SDS011;33997;53.278;9.708;2023-01-16T04:54:33;8.75;;;1.10;;
48207;SDS011;33997;53.278;9.708;2023-01-16T04:56:58;3.88;;;1.52;;
48207;SDS011;33997;53.278;9.708;2023-01-16T04:59:25;5.03;;;1.13;;
48207;SDS011;33997;53.278;9.708;2023-01-16T05:01:51;4.90;;;0.80;;
48207;SDS011;33997;53.278;9.708;2023-01-16T05:04:16;3.00;;;0.98;;
48207;SDS011;33997;53.278;9.708;2023-01-16T05:06:43;3.58;;;0.77;;
48207;SDS011;33997;53.278;9.708;2023-01-16T05:09:08;3.78;;;0.98;;
48207;SDS011;33997;53.278;9.708;2023-01-16T05:11:34;2.90;;;0.90;;
48207;SDS011;33997;53.278;9.708;2023-01-16T05:14:00;4.25;;;0.73;;
48207;SDS011;33997;53.278;9.708;2023-01-16T05:16:26;2.83;;;0.80;;
48207;SDS011;33997;53.278;9.708;2023-01-16T05:18:52;2.20;;;0.65;;
48207;SDS011;33997;53.278;9.708;2023-01-16T05:21:17;4.78;;;1.25;;
48207;SDS011;33997;53.278;9.708;2023-01-16T05:23:43;3.65;;;0.80;;
48207;SDS011;33997;53.278;9.708;2023-01-16T05:26:08;7.32;;;1.02;;
48207;SDS011;33997;53.278;9.708;2023-01-16T05:28:34;9.25;;;1.08;;
48207;SDS011;33997;53.278;9.708;2023-01-16T05:31:00;3.72;;;0.98;;
48207;SDS011;33997;53.278;9.708;2023-01-16T05:33:27;1.70;;;0.60;;
48207;SDS011;33997;53.278;9.708;2023-01-16T05:35:52;3.45;;;0.68;;
48207;SDS011;33997;53.278;9.708;2023-01-16T05:38:19;3.28;;;0.70;;
48207;SDS011;33997;53.278;9.708;2023-01-16T05:40:44;2.47;;;0.63;;
48207;SDS011;33997;53.278;9.708;2023-01-16T05:43:10;6.07;;;1.10;;
48207;SDS011;33997;53.278;9.708;2023-01-16T05:45:36;4.05;;;0.70;;
48207;SDS011;33997;53.278;9.708;2023-01-16T05:48:02;3.42;;;0.75;;
48207;SDS011;33997;53.278;9.708;2023-01-16T05:50:28;4.22;;;0.80;;
48207;SDS011;33997;53.278;9.708;2023-01-16T05:52:53;2.65;;;0.80;;
48207;SDS011;33997;53.278;9.708;2023-01-16T05:55:19;4.82;;;0.70;;
48207;SDS011;33997;53.278;9.708;2023-01-16T05:57:44;4.47;;;1.05;;
48207;SDS011;33997;53.278;9.708;2023-01-16T06:00:10;2.53;;;0.85;;
48207;SDS011;33997;53.278;9.708;2023-01-16T06:02:36;3.40;;;0.70;;
48207;SDS011;33997;53.278;9.708;2023-01-16T06:05:02;3.38;;;0.82;;
48207;SDS011;33997;53.278;9.708;2023-01-16T06:07:27;3.08;;;0.80;;
48207;SDS011;33997;53.278;9.708;2023-01-16T06:09:53;2.38;;;0.60;;
48207;SDS011;33997;53.278;9.708;2023-01-16T06:12:19;4.13;;;1.00;;
48207;SDS011;33997;53.278;9.708;2023-01-16T06:14:45;4.13;;;0.63;;
48207;SDS011;33997;53.278;9.708;2023-01-16T06:17:11;2.38;;;0.88;;
48207;SDS011;33997;53.278;9.708;2023-01-16T06:19:39;1.65;;;0.70;;
48207;SDS011;33997;53.278;9.708;2023-01-16T06:22:05;2.80;;;0.82;;
48207;SDS011;33997;53.278;9.708;2023-01-16T06:24:30;1.65;;;0.60;;
48207;SDS011;33997;53.278;9.708;2023-01-16T06:26:56;2.20;;;0.70;;
48207;SDS011;33997;53.278;9.708;2023-01-16T06:29:21;2.88;;;0.90;;
48207;SDS011;33997;53.278;9.708;2023-01-16T06:31:47;3.17;;;0.73;;
48207;SDS011;33997;53.278;9.708;2023-01-16T06:34:12;2.35;;;0.60;;
48207;SDS011;33997;53.278;9.708;2023-01-16T06:36:38;2.35;;;0.80;;
48207;SDS011;33997;53.278;9.708;2023-01-16T06:39:03;1.85;;;0.77;;
48207;SDS011;33997;53.278;9.708;2023-01-16T06:41:29;1.58;;;0.60;;
48207;SDS011;33997;53.278;9.708;2023-01-16T06:43:54;2.65;;;0.70;;
48207;SDS011;33997;53.278;9.708;2023-01-16T06:46:20;2.08;;;0.70;;
48207;SDS011;33997;53.278;9.708;2023-01-16T06:48:45;3.97;;;0.90;;
48207;SDS011;33997;53.278;9.708;2023-01-16T06:51:11;3.15;;;0.70;;
48207;SDS011;33997;53.278;9.708;2023-01-16T06:53:36;1.80;;;0.73;;
48207;SDS011;33997;53.278;9.708;2023-01-16T06:56:02;2.00;;;0.68;;
48207;SDS011;33997;53.278;9.708;2023-01-16T06:58:28;2.85;;;0.73;;
48207;SDS011;33997;53.278;9.708;2023-01-16T07:00:53;3.00;;;0.90;;
48207;SDS011;33997;53.278;9.708;2023-01-16T07:03:20;3.60;;;1.20;;
48207;SDS011;33997;53.278;9.708;2023-01-16T07:05:46;2.72;;;0.70;;
48207;SDS011;33997;53.278;9.708;2023-01-16T07:08:12;3.63;;;0.80;;
48207;SDS011;33997;53.278;9.708;2023-01-16T07:10:39;3.78;;;0.80;;
48207;SDS011;33997;53.278;9.708;2023-01-16T07:13:05;3.05;;;0.80;;
48207;SDS011;33997;53.278;9.708;2023-01-16T07:15:31;2.85;;;0.80;;
48207;SDS011;33997;53.278;9.708;2023-01-16T07:18:16;4.55;;;0.82;;
48207;SDS011;33997;53.278;9.708;2023-01-16T07:21:04;1.00;;;0.88;;
48207;SDS011;33997;53.278;9.708;2023-01-16T07:23:56;5.25;;;0.80;;
48207;SDS011;33997;53.278;9.708;2023-01-16T07:26:25;5.00;;;0.85;;
48207;SDS011;33997;53.278;9.708;2023-01-16T07:28:51;4.22;;;1.05;;
48207;SDS011;33997;53.278;9.708;2023-01-16T07:31:19;5.97;;;1.02;;
48207;SDS011;33997;53.278;9.708;2023-01-16T07:33:45;2.28;;;1.13;;
48207;SDS011;33997;53.278;9.708;2023-01-16T07:36:11;4.78;;;1.00;;
48207;SDS011;33997;53.278;9.708;2023-01-16T07:38:36;3.38;;;1.13;;
48207;SDS011;33997;53.278;9.708;2023-01-16T07:41:02;2.17;;;0.88;;
48207;SDS011;33997;53.278;9.708;2023-01-16T07:43:27;1.95;;;1.00;;
48207;SDS011;33997;53.278;9.708;2023-01-16T07:45:53;11.45;;;3.05;;
48207;SDS011;33997;53.278;9.708;2023-01-16T07:48:22;7.00;;;2.13;;
48207;SDS011;33997;53.278;9.708;2023-01-16T07:50:49;2.45;;;1.50;;
48207;SDS011;33997;53.278;9.708;2023-01-16T07:53:22;4.45;;;1.20;;
48207;SDS011;33997;53.278;9.708;2023-01-16T07:55:49;3.30;;;1.00;;
48207;SDS011;33997;53.278;9.708;2023-01-16T07:58:16;1.15;;;0.77;;
48207;SDS011;33997;53.278;9.708;2023-01-16T08:00:42;4.30;;;1.42;;
48207;SDS011;33997;53.278;9.708;2023-01-16T08:03:08;5.13;;;1.00;;
48207;SDS011;33997;53.278;9.708;2023-01-16T08:05:33;3.15;;;1.30;;
48207;SDS011;33997;53.278;9.708;2023-01-16T08:07:59;5.78;;;1.15;;
48207;SDS011;33997;53.278;9.708;2023-01-16T08:10:24;5.28;;;0.82;;
48207;SDS011;33997;53.278;9.708;2023-01-16T08:12:50;2.00;;;1.02;;
48207;SDS011;33997;53.278;9.708;2023-01-16T08:15:15;5.57;;;1.38;;
48207;SDS011;33997;53.278;9.708;2023-01-16T08:17:41;2.55;;;1.58;;
48207;SDS011;33997;53.278;9.708;2023-01-16T08:20:07;5.88;;;1.10;;
48207;SDS011;33997;53.278;9.708;2023-01-16T08:22:33;5.95;;;1.20;;
48207;SDS011;33997;53.278;9.708;2023-01-16T08:24:59;6.55;;;1.63;;
48207;SDS011;33997;53.278;9.708;2023-01-16T08:27:24;2.20;;;1.25;;
48207;SDS011;33997;53.278;9.708;2023-01-16T08:29:50;4.10;;;1.25;;
48207;SDS011;33997;53.278;9.708;2023-01-16T08:32:15;7.78;;;1.40;;
48207;SDS011;33997;53.278;9.708;2023-01-16T08:34:41;6.60;;;1.30;;
48207;SDS011;33997;53.278;9.708;2023-01-16T08:37:07;3.58;;;1.23;;
48207;SDS011;33997;53.278;9.708;2023-01-16T08:39:35;3.92;;;1.50;;
48207;SDS011;33997;53.278;9.708;2023-01-16T08:42:01;5.65;;;1.40;;
48207;SDS011;33997;53.278;9.708;2023-01-16T08:44:45;4.25;;;1.42;;
48207;SDS011;33997;53.278;9.708;2023-01-16T08:47:29;3.28;;;1.30;;
48207;SDS011;33997;53.278;9.708;2023-01-16T08:50:15;6.07;;;1.50;;
48207;SDS011;33997;53.278;9.708;2023-01-16T08:53:02;6.57;;;1.48;;
48207;SDS011;33997;53.278;9.708;2023-01-16T08:55:29;5.72;;;1.35;;
48207;SDS011;33997;53.278;9.708;2023-01-16T08:57:54;2.38;;;1.05;;
48207;SDS011;33997;53.278;9.708;2023-01-16T09:00:23;3.22;;;1.10;;
48207;SDS011;33997;53.278;9.708;2023-01-16T09:02:49;3.92;;;0.90;;
48207;SDS011;33997;53.278;9.708;2023-01-16T09:05:15;2.08;;;0.82;;
48207;SDS011;33997;53.278;9.708;2023-01-16T09:07:40;7.25;;;1.35;;
48207;SDS011;33997;53.278;9.708;2023-01-16T09:10:06;4.45;;;1.30;;
48207;SDS011;33997;53.278;9.708;2023-01-16T09:12:32;4.45;;;1.05;;
48207;SDS011;33997;53.278;9.708;2023-01-16T09:15:16;2.15;;;0.88;;
48207;SDS011;33997;53.278;9.708;2023-01-16T09:17:41;6.25;;;1.30;;
48207;SDS011;33997;53.278;9.708;2023-01-16T09:20:07;1.75;;;0.88;;
48207;SDS011;33997;53.278;9.708;2023-01-16T09:22:33;1.95;;;0.82;;
48207;SDS011;33997;53.278;9.708;2023-01-16T09:24:59;4.68;;;0.85;;
48207;SDS011;33997;53.278;9.708;2023-01-16T09:27:25;5.05;;;1.10;;
48207;SDS011;33997;53.278;9.708;2023-01-16T09:29:50;3.92;;;1.35;;
48207;SDS011;33997;53.278;9.708;2023-01-16T09:32:16;2.08;;;0.90;;
48207;SDS011;33997;53.278;9.708;2023-01-16T09:34:43;2.15;;;1.15;;
48207;SDS011;33997;53.278;9.708;2023-01-16T09:37:09;1.75;;;1.00;;
48207;SDS011;33997;53.278;9.708;2023-01-16T09:39:36;1.95;;;0.90;;
48207;SDS011;33997;53.278;9.708;2023-01-16T09:42:11;2.22;;;0.95;;
48207;SDS011;33997;53.278;9.708;2023-01-16T09:45:13;4.25;;;1.05;;
48207;SDS011;33997;53.278;9.708;2023-01-16T09:47:41;4.70;;;1.20;;
48207;SDS011;33997;53.278;9.708;2023-01-16T09:50:22;3.08;;;1.15;;
48207;SDS011;33997;53.278;9.708;2023-01-16T09:52:55;4.35;;;1.67;;
48207;SDS011;33997;53.278;9.708;2023-01-16T09:55:42;5.00;;;1.30;;
48207;SDS011;33997;53.278;9.708;2023-01-16T09:58:29;2.50;;;0.90;;
48207;SDS011;33997;53.278;9.708;2023-01-16T10:01:05;1.75;;;1.13;;
48207;SDS011;33997;53.278;9.708;2023-01-16T10:03:34;4.82;;;1.17;;
48207;SDS011;33997;53.278;9.708;2023-01-16T10:06:18;3.05;;;0.90;;
48207;SDS011;33997;53.278;9.708;2023-01-16T10:09:07;4.75;;;1.13;;
48207;SDS011;33997;53.278;9.708;2023-01-16T10:11:57;2.47;;;0.88;;
48207;SDS011;33997;53.278;9.708;2023-01-16T10:17:32;1.75;;;0.60;;
48207;SDS011;33997;53.278;9.708;2023-01-16T10:23:19;8.95;;;1.42;;
48207;SDS011;33997;53.278;9.708;2023-01-16T10:26:06;3.15;;;0.80;;
48207;SDS011;33997;53.278;9.708;2023-01-16T10:28:52;3.45;;;1.02;;
48207;SDS011;33997;53.278;9.708;2023-01-16T10:31:41;2.30;;;1.05;;
48207;SDS011;33997;53.278;9.708;2023-01-16T10:34:21;3.78;;;1.02;;
48207;SDS011;33997;53.278;9.708;2023-01-16T10:36:51;2.20;;;0.85;;
48207;SDS011;33997;53.278;9.708;2023-01-16T10:39:19;4.20;;;1.00;;
48207;SDS011;33997;53.278;9.708;2023-01-16T10:41:47;4.55;;;1.05;;
48207;SDS011;33997;53.278;9.708;2023-01-16T10:44:34;1.50;;;0.90;;
48207;SDS011;33997;53.278;9.708;2023-01-16T10:47:41;3.17;;;0.95;;
48207;SDS011;33997;53.278;9.708;2023-01-16T10:50:26;2.92;;;1.00;;
48207;SDS011;33997;53.278;9.708;2023-01-16T10:52:51;5.50;;;0.98;;
48207;SDS011;33997;53.278;9.708;2023-01-16T10:55:18;3.40;;;1.13;;
48207;SDS011;33997;53.278;9.708;2023-01-16T11:00:49;4.80;;;0.90;;
48207;SDS011;33997;53.278;9.708;2023-01-16T11:03:23;4.78;;;0.98;;
48207;SDS011;33997;53.278;9.708;2023-01-16T11:06:06;5.90;;;1.08;;
48207;SDS011;33997;53.278;9.708;2023-01-16T11:08:33;2.85;;;0.85;;
48207;SDS011;33997;53.278;9.708;2023-01-16T11:11:00;8.43;;;2.55;;
48207;SDS011;33997;53.278;9.708;2023-01-16T11:13:27;4.03;;;1.20;;
48207;SDS011;33997;53.278;9.708;2023-01-16T11:18:55;1.58;;;0.80;;
48207;SDS011;33997;53.278;9.708;2023-01-16T11:21:39;2.28;;;0.85;;
48207;SDS011;33997;53.278;9.708;2023-01-16T11:24:13;4.57;;;1.00;;
48207;SDS011;33997;53.278;9.708;2023-01-16T11:26:41;5.47;;;1.17;;
48207;SDS011;33997;53.278;9.708;2023-01-16T11:29:14;3.25;;;1.00;;
48207;SDS011;33997;53.278;9.708;2023-01-16T11:31:47;5.27;;;1.23;;
48207;SDS011;33997;53.278;9.708;2023-01-16T11:34:16;1.30;;;0.63;;
48207;SDS011;33997;53.278;9.708;2023-01-16T11:36:42;1.67;;;0.80;;
48207;SDS011;33997;53.278;9.708;2023-01-16T11:39:16;3.63;;;0.60;;
48207;SDS011;33997;53.278;9.708;2023-01-16T11:41:47;2.55;;;0.80;;
48207;SDS011;33997;53.278;9.708;2023-01-16T11:44:16;3.58;;;1.00;;
48207;SDS011;33997;53.278;9.708;2023-01-16T11:47:04;4.05;;;0.85;;
48207;SDS011;33997;53.278;9.708;2023-01-16T11:49:34;2.08;;;0.70;;
48207;SDS011;33997;53.278;9.708;2023-01-16T11:52:03;2.90;;;0.90;;
48207;SDS011;33997;53.278;9.708;2023-01-16T11:54:30;4.80;;;1.20;;
48207;SDS011;33997;53.278;9.708;2023-01-16T11:57:18;2.50;;;0.80;;
48207;SDS011;33997;53.278;9.708;2023-01-16T11:59:58;2.00;;;0.60;;
48207;SDS011;33997;53.278;9.708;2023-01-16T12:05:32;3.92;;;0.95;;
48207;SDS011;33997;53.278;9.708;2023-01-16T12:08:38;6.28;;;1.35;;
48207;SDS011;33997;53.278;9.708;2023-01-16T12:11:24;2.28;;;0.70;;
48207;SDS011;33997;53.278;9.708;2023-01-16T12:14:10;2.30;;;0.90;;
48207;SDS011;33997;53.278;9.708;2023-01-16T12:22:05;2.00;;;0.80;;
48207;SDS011;33997;53.278;9.708;2023-01-16T12:24:59;1.77;;;0.80;;
48207;SDS011;33997;53.278;9.708;2023-01-16T12:27:42;3.25;;;0.60;;
48207;SDS011;33997;53.278;9.708;2023-01-16T12:36:22;5.00;;;0.85;;
48207;SDS011;33997;53.278;9.708;2023-01-16T12:50:59;2.00;;;0.60;;
48207;SDS011;33997;53.278;9.708;2023-01-16T12:54:05;2.75;;;0.75;;
48207;SDS011;33997;53.278;9.708;2023-01-16T12:59:26;4.10;;;0.93;;
48207;SDS011;33997;53.278;9.708;2023-01-16T13:02:12;4.30;;;0.88;;
48207;SDS011;33997;53.278;9.708;2023-01-16T13:04:50;4.20;;;0.65;;
48207;SDS011;33997;53.278;9.708;2023-01-16T13:07:25;2.58;;;0.75;;
48207;SDS011;33997;53.278;9.708;2023-01-16T13:12:52;2.03;;;0.70;;
48207;SDS011;33997;53.278;9.708;2023-01-16T13:15:37;1.83;;;0.70;;
48207;SDS011;33997;53.278;9.708;2023-01-16T13:20:54;1.13;;;0.50;;
48207;SDS011;33997;53.278;9.708;2023-01-16T13:23:24;2.08;;;0.60;;
48207;SDS011;33997;53.278;9.708;2023-01-16T13:26:01;2.03;;;0.63;;
48207;SDS011;33997;53.278;9.708;2023-01-16T13:28:50;1.95;;;0.77;;
48207;SDS011;33997;53.278;9.708;2023-01-16T13:31:40;3.35;;;0.90;;
48207;SDS011;33997;53.278;9.708;2023-01-16T13:34:12;1.60;;;0.60;;
48207;SDS011;33997;53.278;9.708;2023-01-16T13:36:48;1.63;;;0.60;;
48207;SDS011;33997;53.278;9.708;2023-01-16T13:42:24;2.05;;;0.88;;
48207;SDS011;33997;53.278;9.708;2023-01-16T13:44:53;2.10;;;0.52;;
48207;SDS011;33997;53.278;9.708;2023-01-16T13:47:43;4.22;;;1.38;;
48207;SDS011;33997;53.278;9.708;2023-01-16T13:50:21;3.88;;;1.60;;
48207;SDS011;33997;53.278;9.708;2023-01-16T13:53:02;3.67;;;1.00;;
48207;SDS011;33997;53.278;9.708;2023-01-16T13:55:33;2.50;;;0.52;;
48207;SDS011;33997;53.278;9.708;2023-01-16T13:58:07;1.13;;;0.50;;
48207;SDS011;33997;53.278;9.708;2023-01-16T14:00:58;3.67;;;1.10;;
48207;SDS011;33997;53.278;9.708;2023-01-16T14:03:26;2.33;;;0.73;;
48207;SDS011;33997;53.278;9.708;2023-01-16T14:05:53;1.60;;;0.65;;
48207;SDS011;33997;53.278;9.708;2023-01-16T14:11:40;1.05;;;0.52;;
48207;SDS011;33997;53.278;9.708;2023-01-16T14:17:26;0.88;;;0.63;;
48207;SDS011;33997;53.278;9.708;2023-01-16T14:22:21;2.15;;;0.80;;
48207;SDS011;33997;53.278;9.708;2023-01-16T14:24:52;2.17;;;0.75;;
48207;SDS011;33997;53.278;9.708;2023-01-16T14:27:22;3.90;;;1.17;;
48207;SDS011;33997;53.278;9.708;2023-01-16T14:30:02;2.30;;;0.70;;
48207;SDS011;33997;53.278;9.708;2023-01-16T14:32:32;6.78;;;0.93;;
48207;SDS011;33997;53.278;9.708;2023-01-16T14:39:59;3.38;;;0.98;;
48207;SDS011;33997;53.278;9.708;2023-01-16T14:42:47;3.97;;;0.90;;
48207;SDS011;33997;53.278;9.708;2023-01-16T14:45:33;3.25;;;0.80;;
48207;SDS011;33997;53.278;9.708;2023-01-16T14:54:09;0.95;;;0.73;;
48207;SDS011;33997;53.278;9.708;2023-01-16T14:57:18;2.53;;;0.85;;
48207;SDS011;33997;53.278;9.708;2023-01-16T15:02:35;1.05;;;0.60;;
48207;SDS011;33997;53.278;9.708;2023-01-16T15:07:41;2.40;;;0.52;;
48207;SDS011;33997;53.278;9.708;2023-01-16T15:10:16;3.58;;;1.13;;
48207;SDS011;33997;53.278;9.708;2023-01-16T15:16:19;1.38;;;0.73;;
48207;SDS011;33997;53.278;9.708;2023-01-16T15:19:17;2.47;;;0.57;;
48207;SDS011;33997;53.278;9.708;2023-01-16T15:22:38;2.47;;;0.90;;
48207;SDS011;33997;53.278;9.708;2023-01-16T15:25:09;2.28;;;0.88;;
48207;SDS011;33997;53.278;9.708;2023-01-16T15:30:40;1.83;;;0.68;;
48207;SDS011;33997;53.278;9.708;2023-01-16T15:33:20;2.30;;;0.90;;
48207;SDS011;33997;53.278;9.708;2023-01-16T15:36:26;2.08;;;0.70;;
48207;SDS011;33997;53.278;9.708;2023-01-16T15:42:18;3.63;;;0.77;;
48207;SDS011;33997;53.278;9.708;2023-01-16T15:45:12;2.80;;;0.95;;
48207;SDS011;33997;53.278;9.708;2023-01-16T15:50:59;2.80;;;0.88;;
48207;SDS011;33997;53.278;9.708;2023-01-16T15:53:31;3.10;;;0.70;;
48207;SDS011;33997;53.278;9.708;2023-01-16T15:56:24;2.55;;;0.80;;
48207;SDS011;33997;53.278;9.708;2023-01-16T15:58:54;4.93;;;1.38;;
48207;SDS011;33997;53.278;9.708;2023-01-16T16:01:26;4.18;;;0.90;;
48207;SDS011;33997;53.278;9.708;2023-01-16T16:03:55;2.15;;;1.00;;
48207;SDS011;33997;53.278;9.708;2023-01-16T16:06:21;2.00;;;0.82;;
48207;SDS011;33997;53.278;9.708;2023-01-16T16:08:49;1.40;;;0.75;;
48207;SDS011;33997;53.278;9.708;2023-01-16T16:11:20;2.67;;;0.85;;
48207;SDS011;33997;53.278;9.708;2023-01-16T16:14:09;2.45;;;0.88;;
48207;SDS011;33997;53.278;9.708;2023-01-16T16:16:59;1.42;;;0.80;;
48207;SDS011;33997;53.278;9.708;2023-01-16T16:19:49;1.30;;;0.68;;
48207;SDS011;33997;53.278;9.708;2023-01-16T16:22:19;1.55;;;0.77;;
48207;SDS011;33997;53.278;9.708;2023-01-16T16:25:07;1.95;;;0.80;;
48207;SDS011;33997;53.278;9.708;2023-01-16T16:27:41;2.45;;;0.80;;
48207;SDS011;33997;53.278;9.708;2023-01-16T16:30:13;2.67;;;0.65;;
48207;SDS011;33997;53.278;9.708;2023-01-16T16:32:44;4.28;;;0.88;;
48207;SDS011;33997;53.278;9.708;2023-01-16T16:35:16;3.33;;;0.82;;
48207;SDS011;33997;53.278;9.708;2023-01-16T16:37:45;1.40;;;0.68;;
48207;SDS011;33997;53.278;9.708;2023-01-16T16:40:14;1.70;;;0.70;;
48207;SDS011;33997;53.278;9.708;2023-01-16T16:45:18;2.30;;;1.10;;
48207;SDS011;33997;53.278;9.708;2023-01-16T16:47:46;2.42;;;1.10;;
48207;SDS011;33997;53.278;9.708;2023-01-16T16:53:02;4.15;;;0.95;;
48207;SDS011;33997;53.278;9.708;2023-01-16T16:55:31;4.85;;;0.93;;
48207;SDS011;33997;53.278;9.708;2023-01-16T16:58:00;2.40;;;1.05;;
48207;SDS011;33997;53.278;9.708;2023-01-16T17:00:28;1.90;;;0.60;;
48207;SDS011;33997;53.278;9.708;2023-01-16T17:03:03;2.85;;;1.00;;
48207;SDS011;33997;53.278;9.708;2023-01-16T17:05:31;2.88;;;1.20;;
48207;SDS011;33997;53.278;9.708;2023-01-16T17:07:57;1.73;;;0.90;;
48207;SDS011;33997;53.278;9.708;2023-01-16T17:10:23;2.78;;;0.95;;
48207;SDS011;33997;53.278;9.708;2023-01-16T17:12:48;2.88;;;0.52;;
48207;SDS011;33997;53.278;9.708;2023-01-16T17:15:14;1.48;;;0.60;;
48207;SDS011;33997;53.278;9.708;2023-01-16T17:17:40;0.77;;;0.50;;
48207;SDS011;33997;53.278;9.708;2023-01-16T17:20:16;0.90;;;0.50;;